sensor_id;sensor_type;location;lat;lon;timestamp;P1;durP1;ratioP1;P2;durP2;ratioP2
6438;SDS011;3252;52.540;13.290;2023-04-29T00:00:26;8.70;;;4.70;;
6438;SDS011;3252;52.540;13.290;2023-04-29T00:02:29;8.07;;;4.90;;
6438;SDS011;3252;52.540;13.290;2023-04-29T00:04:31;8.60;;;5.20;;
6438;SDS011;3252;52.540;13.290;2023-04-29T00:06:34;9.33;;;4.70;;
6438;SDS011;3252;52.540;13.290;2023-04-29T00:08:36;9.83;;;5.17;;
6438;SDS011;3252;52.540;13.290;2023-04-29T00:10:39;7.70;;;5.23;;
6438;SDS011;3252;52.540;13.290;2023-04-29T00:12:41;11.73;;;5.20;;
6438;SDS011;3252;52.540;13.290;2023-04-29T00:14:45;8.33;;;5.13;;
6438;SDS011;3252;52.540;13.290;2023-04-29T00:16:47;6.87;;;5.50;;
6438;SDS011;3252;52.540;13.290;2023-04-29T00:18:49;8.77;;;5.13;;
6438;SDS011;3252;52.540;13.290;2023-04-29T00:20:52;8.00;;;4.63;;
6438;SDS011;3252;52.540;13.290;2023-04-29T00:22:54;7.40;;;5.00;;
6438;SDS011;3252;52.540;13.290;2023-04-29T00:24:56;6.50;;;4.70;;
6438;SDS011;3252;52.540;13.290;2023-04-29T00:26:58;9.83;;;5.67;;
6438;SDS011;3252;52.540;13.290;2023-04-29T00:29:00;9.47;;;5.20;;
6438;SDS011;3252;52.540;13.290;2023-04-29T00:31:04;9.63;;;4.83;;
6438;SDS011;3252;52.540;13.290;2023-04-29T00:33:06;7.50;;;4.83;;
6438;SDS011;3252;52.540;13.290;2023-04-29T00:35:09;6.57;;;5.07;;
6438;SDS011;3252;52.540;13.290;2023-04-29T00:37:11;8.20;;;5.27;;
6438;SDS011;3252;52.540;13.290;2023-04-29T00:39:13;8.57;;;5.37;;
6438;SDS011;3252;52.540;13.290;2023-04-29T00:41:16;8.30;;;5.20;;
6438;SDS011;3252;52.540;13.290;2023-04-29T00:43:19;10.57;;;5.23;;
6438;SDS011;3252;52.540;13.290;2023-04-29T00:45:21;8.80;;;5.47;;
6438;SDS011;3252;52.540;13.290;2023-04-29T00:47:25;7.63;;;5.33;;
6438;SDS011;3252;52.540;13.290;2023-04-29T00:49:27;5.77;;;5.13;;
6438;SDS011;3252;52.540;13.290;2023-04-29T00:51:30;7.80;;;5.07;;
6438;SDS011;3252;52.540;13.290;2023-04-29T00:53:35;8.93;;;5.60;;
6438;SDS011;3252;52.540;13.290;2023-04-29T00:55:38;10.37;;;5.53;;
6438;SDS011;3252;52.540;13.290;2023-04-29T00:57:41;10.20;;;5.40;;
6438;SDS011;3252;52.540;13.290;2023-04-29T00:59:44;9.23;;;5.50;;
6438;SDS011;3252;52.540;13.290;2023-04-29T01:01:48;10.30;;;5.90;;
6438;SDS011;3252;52.540;13.290;2023-04-29T01:03:52;9.97;;;5.50;;
6438;SDS011;3252;52.540;13.290;2023-04-29T01:05:56;10.80;;;6.50;;
6438;SDS011;3252;52.540;13.290;2023-04-29T01:08:13;11.13;;;6.23;;
6438;SDS011;3252;52.540;13.290;2023-04-29T01:10:26;9.73;;;6.67;;
6438;SDS011;3252;52.540;13.290;2023-04-29T01:12:32;13.63;;;6.53;;
6438;SDS011;3252;52.540;13.290;2023-04-29T01:14:40;13.60;;;6.93;;
6438;SDS011;3252;52.540;13.290;2023-04-29T01:16:50;13.00;;;7.70;;
6438;SDS011;3252;52.540;13.290;2023-04-29T01:18:55;10.63;;;7.40;;
6438;SDS011;3252;52.540;13.290;2023-04-29T01:21:05;12.57;;;7.93;;
6438;SDS011;3252;52.540;13.290;2023-04-29T01:23:07;14.70;;;7.80;;
6438;SDS011;3252;52.540;13.290;2023-04-29T01:25:11;12.07;;;7.60;;
6438;SDS011;3252;52.540;13.290;2023-04-29T01:27:46;9.50;;;7.63;;
6438;SDS011;3252;52.540;13.290;2023-04-29T01:30:00;10.50;;;7.87;;
6438;SDS011;3252;52.540;13.290;2023-04-29T01:32:10;13.77;;;7.87;;
6438;SDS011;3252;52.540;13.290;2023-04-29T01:34:17;12.10;;;7.40;;
6438;SDS011;3252;52.540;13.290;2023-04-29T01:36:29;11.60;;;7.87;;
6438;SDS011;3252;52.540;13.290;2023-04-29T01:38:38;11.43;;;7.60;;
6438;SDS011;3252;52.540;13.290;2023-04-29T01:40:48;11.13;;;8.30;;
6438;SDS011;3252;52.540;13.290;2023-04-29T01:43:01;11.77;;;8.80;;
6438;SDS011;3252;52.540;13.290;2023-04-29T01:45:07;11.53;;;8.27;;
6438;SDS011;3252;52.540;13.290;2023-04-29T01:47:12;12.73;;;8.20;;
6438;SDS011;3252;52.540;13.290;2023-04-29T01:49:20;13.90;;;8.33;;
6438;SDS011;3252;52.540;13.290;2023-04-29T01:51:23;11.07;;;8.50;;
6438;SDS011;3252;52.540;13.290;2023-04-29T01:53:25;13.47;;;9.40;;
6438;SDS011;3252;52.540;13.290;2023-04-29T01:55:27;11.20;;;8.70;;
6438;SDS011;3252;52.540;13.290;2023-04-29T01:57:53;10.70;;;9.47;;
6438;SDS011;3252;52.540;13.290;2023-04-29T02:00:13;12.37;;;8.93;;
6438;SDS011;3252;52.540;13.290;2023-04-29T02:02:22;12.93;;;9.37;;
6438;SDS011;3252;52.540;13.290;2023-04-29T02:04:32;13.77;;;10.33;;
6438;SDS011;3252;52.540;13.290;2023-04-29T02:06:36;14.53;;;9.93;;
6438;SDS011;3252;52.540;13.290;2023-04-29T02:08:39;12.83;;;10.27;;
6438;SDS011;3252;52.540;13.290;2023-04-29T02:10:41;12.17;;;10.03;;
6438;SDS011;3252;52.540;13.290;2023-04-29T02:13:04;16.90;;;11.33;;
6438;SDS011;3252;52.540;13.290;2023-04-29T02:15:06;11.47;;;10.23;;
6438;SDS011;3252;52.540;13.290;2023-04-29T02:17:10;14.57;;;10.80;;
6438;SDS011;3252;52.540;13.290;2023-04-29T02:19:14;13.60;;;10.90;;
6438;SDS011;3252;52.540;13.290;2023-04-29T02:21:16;14.40;;;10.10;;
6438;SDS011;3252;52.540;13.290;2023-04-29T02:23:19;13.50;;;10.40;;
6438;SDS011;3252;52.540;13.290;2023-04-29T02:25:21;14.47;;;10.70;;
6438;SDS011;3252;52.540;13.290;2023-04-29T02:27:23;14.87;;;11.60;;
6438;SDS011;3252;52.540;13.290;2023-04-29T02:29:27;15.37;;;11.27;;
6438;SDS011;3252;52.540;13.290;2023-04-29T02:31:30;12.77;;;10.53;;
6438;SDS011;3252;52.540;13.290;2023-04-29T02:33:33;16.13;;;12.00;;
6438;SDS011;3252;52.540;13.290;2023-04-29T02:35:35;14.73;;;11.30;;
6438;SDS011;3252;52.540;13.290;2023-04-29T02:37:37;20.33;;;12.70;;
6438;SDS011;3252;52.540;13.290;2023-04-29T02:39:39;14.73;;;11.33;;
6438;SDS011;3252;52.540;13.290;2023-04-29T02:41:42;13.27;;;11.33;;
6438;SDS011;3252;52.540;13.290;2023-04-29T02:43:45;15.63;;;12.53;;
6438;SDS011;3252;52.540;13.290;2023-04-29T02:45:49;15.40;;;12.30;;
6438;SDS011;3252;52.540;13.290;2023-04-29T02:47:52;16.93;;;13.60;;
6438;SDS011;3252;52.540;13.290;2023-04-29T02:49:54;16.67;;;12.13;;
6438;SDS011;3252;52.540;13.290;2023-04-29T02:51:56;16.43;;;12.57;;
6438;SDS011;3252;52.540;13.290;2023-04-29T02:53:58;14.77;;;12.03;;
6438;SDS011;3252;52.540;13.290;2023-04-29T02:56:01;13.17;;;11.43;;
6438;SDS011;3252;52.540;13.290;2023-04-29T02:58:04;15.50;;;13.20;;
6438;SDS011;3252;52.540;13.290;2023-04-29T03:00:06;15.83;;;13.23;;
6438;SDS011;3252;52.540;13.290;2023-04-29T03:02:11;15.10;;;11.83;;
6438;SDS011;3252;52.540;13.290;2023-04-29T03:04:15;16.63;;;13.77;;
6438;SDS011;3252;52.540;13.290;2023-04-29T03:06:17;18.13;;;14.80;;
6438;SDS011;3252;52.540;13.290;2023-04-29T03:08:19;17.63;;;13.97;;
6438;SDS011;3252;52.540;13.290;2023-04-29T03:10:22;14.50;;;12.60;;
6438;SDS011;3252;52.540;13.290;2023-04-29T03:12:24;14.40;;;12.50;;
6438;SDS011;3252;52.540;13.290;2023-04-29T03:14:27;16.47;;;14.70;;
6438;SDS011;3252;52.540;13.290;2023-04-29T03:16:29;18.73;;;14.57;;
6438;SDS011;3252;52.540;13.290;2023-04-29T03:18:32;19.07;;;14.63;;
6438;SDS011;3252;52.540;13.290;2023-04-29T03:20:35;17.67;;;14.63;;
6438;SDS011;3252;52.540;13.290;2023-04-29T03:22:38;15.67;;;13.37;;
6438;SDS011;3252;52.540;13.290;2023-04-29T03:24:40;15.83;;;14.20;;
6438;SDS011;3252;52.540;13.290;2023-04-29T03:26:44;16.80;;;14.33;;
6438;SDS011;3252;52.540;13.290;2023-04-29T03:28:46;17.13;;;14.70;;
6438;SDS011;3252;52.540;13.290;2023-04-29T03:30:49;16.27;;;14.43;;
6438;SDS011;3252;52.540;13.290;2023-04-29T03:32:51;18.77;;;14.00;;
6438;SDS011;3252;52.540;13.290;2023-04-29T03:34:55;17.63;;;14.67;;
6438;SDS011;3252;52.540;13.290;2023-04-29T03:37:07;18.63;;;16.33;;
6438;SDS011;3252;52.540;13.290;2023-04-29T03:39:11;18.07;;;15.30;;
6438;SDS011;3252;52.540;13.290;2023-04-29T03:41:13;19.83;;;15.27;;
6438;SDS011;3252;52.540;13.290;2023-04-29T03:43:16;19.73;;;16.33;;
6438;SDS011;3252;52.540;13.290;2023-04-29T03:45:18;20.90;;;17.23;;
6438;SDS011;3252;52.540;13.290;2023-04-29T03:47:20;18.30;;;16.40;;
6438;SDS011;3252;52.540;13.290;2023-04-29T03:49:23;18.63;;;16.20;;
6438;SDS011;3252;52.540;13.290;2023-04-29T03:51:26;21.20;;;18.10;;
6438;SDS011;3252;52.540;13.290;2023-04-29T03:53:38;21.27;;;17.13;;
6438;SDS011;3252;52.540;13.290;2023-04-29T03:55:40;23.23;;;17.93;;
6438;SDS011;3252;52.540;13.290;2023-04-29T03:57:43;21.70;;;19.17;;
6438;SDS011;3252;52.540;13.290;2023-04-29T03:59:47;22.13;;;19.20;;
6438;SDS011;3252;52.540;13.290;2023-04-29T04:01:50;24.50;;;20.30;;
6438;SDS011;3252;52.540;13.290;2023-04-29T04:03:53;24.07;;;20.83;;
6438;SDS011;3252;52.540;13.290;2023-04-29T04:05:56;23.83;;;21.23;;
6438;SDS011;3252;52.540;13.290;2023-04-29T04:07:59;23.83;;;19.73;;
6438;SDS011;3252;52.540;13.290;2023-04-29T04:10:10;24.23;;;20.63;;
6438;SDS011;3252;52.540;13.290;2023-04-29T04:12:12;23.90;;;21.33;;
6438;SDS011;3252;52.540;13.290;2023-04-29T04:14:16;23.10;;;20.60;;
6438;SDS011;3252;52.540;13.290;2023-04-29T04:16:19;24.73;;;21.57;;
6438;SDS011;3252;52.540;13.290;2023-04-29T04:18:22;26.17;;;21.70;;
6438;SDS011;3252;52.540;13.290;2023-04-29T04:20:24;30.93;;;23.87;;
6438;SDS011;3252;52.540;13.290;2023-04-29T04:22:27;27.70;;;23.47;;
6438;SDS011;3252;52.540;13.290;2023-04-29T04:24:45;24.97;;;22.13;;
6438;SDS011;3252;52.540;13.290;2023-04-29T04:26:48;25.20;;;22.50;;
6438;SDS011;3252;52.540;13.290;2023-04-29T04:29:02;27.50;;;22.80;;
6438;SDS011;3252;52.540;13.290;2023-04-29T04:31:27;26.93;;;23.77;;
6438;SDS011;3252;52.540;13.290;2023-04-29T04:33:30;27.30;;;24.40;;
6438;SDS011;3252;52.540;13.290;2023-04-29T04:35:33;27.93;;;24.83;;
6438;SDS011;3252;52.540;13.290;2023-04-29T04:37:35;25.73;;;22.93;;
6438;SDS011;3252;52.540;13.290;2023-04-29T04:39:38;27.63;;;24.37;;
6438;SDS011;3252;52.540;13.290;2023-04-29T04:41:46;29.50;;;24.53;;
6438;SDS011;3252;52.540;13.290;2023-04-29T04:43:48;26.63;;;23.83;;
6438;SDS011;3252;52.540;13.290;2023-04-29T04:45:57;28.17;;;23.87;;
6438;SDS011;3252;52.540;13.290;2023-04-29T04:48:00;34.33;;;24.57;;
6438;SDS011;3252;52.540;13.290;2023-04-29T04:50:06;26.70;;;23.73;;
6438;SDS011;3252;52.540;13.290;2023-04-29T04:52:10;35.70;;;27.83;;
6438;SDS011;3252;52.540;13.290;2023-04-29T04:54:13;34.23;;;28.03;;
6438;SDS011;3252;52.540;13.290;2023-04-29T04:56:15;30.23;;;26.87;;
6438;SDS011;3252;52.540;13.290;2023-04-29T04:58:19;30.97;;;26.97;;
6438;SDS011;3252;52.540;13.290;2023-04-29T05:00:22;35.70;;;28.73;;
6438;SDS011;3252;52.540;13.290;2023-04-29T05:02:24;32.63;;;27.77;;
6438;SDS011;3252;52.540;13.290;2023-04-29T05:04:26;34.60;;;27.33;;
6438;SDS011;3252;52.540;13.290;2023-04-29T05:06:31;34.43;;;28.57;;
6438;SDS011;3252;52.540;13.290;2023-04-29T05:08:34;35.20;;;28.33;;
6438;SDS011;3252;52.540;13.290;2023-04-29T05:10:38;31.60;;;28.00;;
6438;SDS011;3252;52.540;13.290;2023-04-29T05:12:41;31.13;;;27.57;;
6438;SDS011;3252;52.540;13.290;2023-04-29T05:14:44;34.60;;;29.20;;
6438;SDS011;3252;52.540;13.290;2023-04-29T05:16:47;34.80;;;29.57;;
6438;SDS011;3252;52.540;13.290;2023-04-29T05:18:50;32.30;;;27.93;;
6438;SDS011;3252;52.540;13.290;2023-04-29T05:20:53;34.33;;;29.93;;
6438;SDS011;3252;52.540;13.290;2023-04-29T05:22:55;39.23;;;33.67;;
6438;SDS011;3252;52.540;13.290;2023-04-29T05:24:58;34.73;;;29.10;;
6438;SDS011;3252;52.540;13.290;2023-04-29T05:27:04;33.70;;;27.83;;
6438;SDS011;3252;52.540;13.290;2023-04-29T05:29:06;32.13;;;28.00;;
6438;SDS011;3252;52.540;13.290;2023-04-29T05:31:19;33.70;;;27.83;;
6438;SDS011;3252;52.540;13.290;2023-04-29T05:33:21;32.60;;;27.70;;
6438;SDS011;3252;52.540;13.290;2023-04-29T05:35:23;31.87;;;26.97;;
6438;SDS011;3252;52.540;13.290;2023-04-29T05:37:26;36.60;;;30.97;;
6438;SDS011;3252;52.540;13.290;2023-04-29T05:39:38;35.07;;;29.13;;
6438;SDS011;3252;52.540;13.290;2023-04-29T05:41:46;37.97;;;29.93;;
6438;SDS011;3252;52.540;13.290;2023-04-29T05:43:53;35.47;;;30.63;;
6438;SDS011;3252;52.540;13.290;2023-04-29T05:45:55;57.17;;;46.17;;
6438;SDS011;3252;52.540;13.290;2023-04-29T05:47:59;36.10;;;29.97;;
6438;SDS011;3252;52.540;13.290;2023-04-29T05:50:01;34.50;;;29.60;;
6438;SDS011;3252;52.540;13.290;2023-04-29T05:52:04;32.77;;;28.60;;
6438;SDS011;3252;52.540;13.290;2023-04-29T05:54:11;33.67;;;29.43;;
6438;SDS011;3252;52.540;13.290;2023-04-29T05:56:13;34.10;;;27.93;;
6438;SDS011;3252;52.540;13.290;2023-04-29T05:58:16;34.13;;;25.77;;
6438;SDS011;3252;52.540;13.290;2023-04-29T06:00:18;29.93;;;25.73;;
6438;SDS011;3252;52.540;13.290;2023-04-29T06:02:21;31.67;;;25.77;;
6438;SDS011;3252;52.540;13.290;2023-04-29T06:04:25;33.30;;;27.30;;
6438;SDS011;3252;52.540;13.290;2023-04-29T06:07:06;31.27;;;26.20;;
6438;SDS011;3252;52.540;13.290;2023-04-29T06:09:24;32.23;;;26.23;;
6438;SDS011;3252;52.540;13.290;2023-04-29T06:11:27;29.87;;;25.03;;
6438;SDS011;3252;52.540;13.290;2023-04-29T06:13:29;30.77;;;26.57;;
6438;SDS011;3252;52.540;13.290;2023-04-29T06:15:32;31.00;;;25.70;;
6438;SDS011;3252;52.540;13.290;2023-04-29T06:17:35;29.13;;;24.87;;
6438;SDS011;3252;52.540;13.290;2023-04-29T06:19:38;32.67;;;26.83;;
6438;SDS011;3252;52.540;13.290;2023-04-29T06:21:43;31.33;;;25.20;;
6438;SDS011;3252;52.540;13.290;2023-04-29T06:23:45;28.53;;;23.77;;
6438;SDS011;3252;52.540;13.290;2023-04-29T06:25:50;26.30;;;23.43;;
6438;SDS011;3252;52.540;13.290;2023-04-29T06:27:52;25.17;;;21.57;;
6438;SDS011;3252;52.540;13.290;2023-04-29T06:29:58;26.63;;;22.23;;
6438;SDS011;3252;52.540;13.290;2023-04-29T06:32:00;26.93;;;22.73;;
6438;SDS011;3252;52.540;13.290;2023-04-29T06:34:02;26.67;;;22.70;;
6438;SDS011;3252;52.540;13.290;2023-04-29T06:36:07;24.23;;;21.57;;
6438;SDS011;3252;52.540;13.290;2023-04-29T06:38:30;24.30;;;20.37;;
6438;SDS011;3252;52.540;13.290;2023-04-29T06:40:45;26.60;;;21.60;;
6438;SDS011;3252;52.540;13.290;2023-04-29T06:42:50;25.23;;;21.87;;
6438;SDS011;3252;52.540;13.290;2023-04-29T06:45:09;25.80;;;20.67;;
6438;SDS011;3252;52.540;13.290;2023-04-29T06:47:28;25.73;;;21.53;;
6438;SDS011;3252;52.540;13.290;2023-04-29T06:49:57;23.73;;;21.00;;
6438;SDS011;3252;52.540;13.290;2023-04-29T06:52:00;28.90;;;22.87;;
6438;SDS011;3252;52.540;13.290;2023-04-29T06:54:02;21.53;;;18.47;;
6438;SDS011;3252;52.540;13.290;2023-04-29T06:56:05;23.17;;;19.00;;
6438;SDS011;3252;52.540;13.290;2023-04-29T06:58:08;22.30;;;18.77;;
6438;SDS011;3252;52.540;13.290;2023-04-29T07:00:10;25.60;;;19.53;;
6438;SDS011;3252;52.540;13.290;2023-04-29T07:02:13;26.83;;;19.60;;
6438;SDS011;3252;52.540;13.290;2023-04-29T07:04:15;28.93;;;21.07;;
6438;SDS011;3252;52.540;13.290;2023-04-29T07:06:20;28.73;;;20.67;;
6438;SDS011;3252;52.540;13.290;2023-04-29T07:08:24;31.30;;;20.43;;
6438;SDS011;3252;52.540;13.290;2023-04-29T07:10:28;27.87;;;20.67;;
6438;SDS011;3252;52.540;13.290;2023-04-29T07:12:30;30.17;;;21.10;;
6438;SDS011;3252;52.540;13.290;2023-04-29T07:14:32;28.43;;;20.57;;
6438;SDS011;3252;52.540;13.290;2023-04-29T07:16:37;27.33;;;20.27;;
6438;SDS011;3252;52.540;13.290;2023-04-29T07:18:43;25.27;;;18.63;;
6438;SDS011;3252;52.540;13.290;2023-04-29T07:20:46;24.67;;;18.13;;
6438;SDS011;3252;52.540;13.290;2023-04-29T07:22:50;21.27;;;17.47;;
6438;SDS011;3252;52.540;13.290;2023-04-29T07:24:54;22.77;;;17.53;;
6438;SDS011;3252;52.540;13.290;2023-04-29T07:26:56;21.43;;;17.57;;
6438;SDS011;3252;52.540;13.290;2023-04-29T07:28:59;26.23;;;21.47;;
6438;SDS011;3252;52.540;13.290;2023-04-29T07:31:01;24.50;;;18.60;;
6438;SDS011;3252;52.540;13.290;2023-04-29T07:33:03;18.50;;;16.47;;
6438;SDS011;3252;52.540;13.290;2023-04-29T07:35:06;21.20;;;18.57;;
6438;SDS011;3252;52.540;13.290;2023-04-29T07:37:09;18.20;;;15.23;;
6438;SDS011;3252;52.540;13.290;2023-04-29T07:39:12;18.13;;;15.47;;
6438;SDS011;3252;52.540;13.290;2023-04-29T07:41:18;18.17;;;15.90;;
6438;SDS011;3252;52.540;13.290;2023-04-29T07:43:20;20.47;;;16.67;;
6438;SDS011;3252;52.540;13.290;2023-04-29T07:45:23;18.97;;;14.80;;
6438;SDS011;3252;52.540;13.290;2023-04-29T07:47:25;19.97;;;15.40;;
6438;SDS011;3252;52.540;13.290;2023-04-29T07:49:27;27.67;;;18.63;;
6438;SDS011;3252;52.540;13.290;2023-04-29T07:51:30;16.60;;;14.20;;
6438;SDS011;3252;52.540;13.290;2023-04-29T07:53:32;17.13;;;13.83;;
6438;SDS011;3252;52.540;13.290;2023-04-29T07:55:35;18.73;;;14.87;;
6438;SDS011;3252;52.540;13.290;2023-04-29T07:57:40;16.77;;;13.57;;
6438;SDS011;3252;52.540;13.290;2023-04-29T07:59:42;16.13;;;12.30;;
6438;SDS011;3252;52.540;13.290;2023-04-29T08:01:45;14.30;;;12.80;;
6438;SDS011;3252;52.540;13.290;2023-04-29T08:03:47;16.03;;;13.83;;
6438;SDS011;3252;52.540;13.290;2023-04-29T08:05:52;13.43;;;12.13;;
6438;SDS011;3252;52.540;13.290;2023-04-29T08:07:55;12.97;;;11.67;;
6438;SDS011;3252;52.540;13.290;2023-04-29T08:09:59;13.50;;;12.10;;
6438;SDS011;3252;52.540;13.290;2023-04-29T08:12:02;14.00;;;11.90;;
6438;SDS011;3252;52.540;13.290;2023-04-29T08:14:07;12.60;;;11.30;;
6438;SDS011;3252;52.540;13.290;2023-04-29T08:16:09;12.10;;;10.80;;
6438;SDS011;3252;52.540;13.290;2023-04-29T08:18:11;15.73;;;11.13;;
6438;SDS011;3252;52.540;13.290;2023-04-29T08:20:14;12.03;;;10.77;;
6438;SDS011;3252;52.540;13.290;2023-04-29T08:22:16;12.10;;;10.63;;
6438;SDS011;3252;52.540;13.290;2023-04-29T08:24:18;13.10;;;10.93;;
6438;SDS011;3252;52.540;13.290;2023-04-29T08:26:21;11.30;;;10.27;;
6438;SDS011;3252;52.540;13.290;2023-04-29T08:28:24;11.93;;;10.40;;
6438;SDS011;3252;52.540;13.290;2023-04-29T08:30:28;11.27;;;10.13;;
6438;SDS011;3252;52.540;13.290;2023-04-29T08:32:30;12.70;;;10.27;;
6438;SDS011;3252;52.540;13.290;2023-04-29T08:34:33;11.97;;;10.63;;
6438;SDS011;3252;52.540;13.290;2023-04-29T08:36:35;12.73;;;10.10;;
6438;SDS011;3252;52.540;13.290;2023-04-29T08:38:38;12.17;;;10.87;;
6438;SDS011;3252;52.540;13.290;2023-04-29T08:40:41;11.97;;;10.30;;
6438;SDS011;3252;52.540;13.290;2023-04-29T08:42:45;302.67;;;245.60;;
6438;SDS011;3252;52.540;13.290;2023-04-29T08:44:48;477.17;;;352.77;;
6438;SDS011;3252;52.540;13.290;2023-04-29T08:46:56;1620.47;;;687.90;;
6438;SDS011;3252;52.540;13.290;2023-04-29T08:49:01;1549.83;;;937.00;;
6438;SDS011;3252;52.540;13.290;2023-04-29T08:51:04;31.87;;;23.90;;
6438;SDS011;3252;52.540;13.290;2023-04-29T08:53:06;13.33;;;11.50;;
6438;SDS011;3252;52.540;13.290;2023-04-29T08:55:09;13.10;;;11.40;;
6438;SDS011;3252;52.540;13.290;2023-04-29T08:57:11;15.00;;;12.63;;
6438;SDS011;3252;52.540;13.290;2023-04-29T08:59:14;21.00;;;16.50;;
6438;SDS011;3252;52.540;13.290;2023-04-29T09:01:18;21.53;;;17.40;;
6438;SDS011;3252;52.540;13.290;2023-04-29T09:03:23;15.97;;;14.00;;
6438;SDS011;3252;52.540;13.290;2023-04-29T09:05:27;18.13;;;14.23;;
6438;SDS011;3252;52.540;13.290;2023-04-29T09:07:31;17.63;;;14.73;;
6438;SDS011;3252;52.540;13.290;2023-04-29T09:09:34;17.73;;;15.20;;
6438;SDS011;3252;52.540;13.290;2023-04-29T09:11:37;21.40;;;16.13;;
6438;SDS011;3252;52.540;13.290;2023-04-29T09:13:39;17.90;;;15.40;;
6438;SDS011;3252;52.540;13.290;2023-04-29T09:15:41;19.13;;;16.43;;
6438;SDS011;3252;52.540;13.290;2023-04-29T09:17:44;20.50;;;16.47;;
6438;SDS011;3252;52.540;13.290;2023-04-29T09:19:48;21.07;;;17.17;;
6438;SDS011;3252;52.540;13.290;2023-04-29T09:21:53;20.70;;;17.97;;
6438;SDS011;3252;52.540;13.290;2023-04-29T09:23:56;21.17;;;18.60;;
6438;SDS011;3252;52.540;13.290;2023-04-29T09:25:59;20.47;;;18.03;;
6438;SDS011;3252;52.540;13.290;2023-04-29T09:28:13;20.77;;;18.07;;
6438;SDS011;3252;52.540;13.290;2023-04-29T09:30:16;20.97;;;18.40;;
6438;SDS011;3252;52.540;13.290;2023-04-29T09:32:18;21.27;;;18.87;;
6438;SDS011;3252;52.540;13.290;2023-04-29T09:34:29;22.47;;;19.10;;
6438;SDS011;3252;52.540;13.290;2023-04-29T09:36:37;26.00;;;21.30;;
6438;SDS011;3252;52.540;13.290;2023-04-29T09:38:52;25.37;;;21.53;;
6438;SDS011;3252;52.540;13.290;2023-04-29T09:40:55;25.30;;;21.03;;
6438;SDS011;3252;52.540;13.290;2023-04-29T09:42:57;44.57;;;37.57;;
6438;SDS011;3252;52.540;13.290;2023-04-29T09:45:00;30.50;;;24.30;;
6438;SDS011;3252;52.540;13.290;2023-04-29T09:47:02;28.27;;;22.23;;
6438;SDS011;3252;52.540;13.290;2023-04-29T09:49:20;35.30;;;23.90;;
6438;SDS011;3252;52.540;13.290;2023-04-29T09:51:24;37.90;;;28.53;;
6438;SDS011;3252;52.540;13.290;2023-04-29T09:53:28;36.67;;;27.10;;
6438;SDS011;3252;52.540;13.290;2023-04-29T09:55:31;37.43;;;28.53;;
6438;SDS011;3252;52.540;13.290;2023-04-29T09:57:38;36.73;;;27.03;;
6438;SDS011;3252;52.540;13.290;2023-04-29T09:59:41;38.77;;;29.83;;
6438;SDS011;3252;52.540;13.290;2023-04-29T10:01:45;44.40;;;31.03;;
6438;SDS011;3252;52.540;13.290;2023-04-29T10:03:49;42.43;;;29.43;;
6438;SDS011;3252;52.540;13.290;2023-04-29T10:05:54;41.37;;;29.37;;
6438;SDS011;3252;52.540;13.290;2023-04-29T10:07:58;42.57;;;29.70;;
6438;SDS011;3252;52.540;13.290;2023-04-29T10:10:03;43.17;;;31.47;;
6438;SDS011;3252;52.540;13.290;2023-04-29T10:12:07;42.03;;;29.10;;
6438;SDS011;3252;52.540;13.290;2023-04-29T10:14:11;37.67;;;28.40;;
6438;SDS011;3252;52.540;13.290;2023-04-29T10:16:20;42.03;;;29.20;;
6438;SDS011;3252;52.540;13.290;2023-04-29T10:18:29;43.50;;;31.30;;
6438;SDS011;3252;52.540;13.290;2023-04-29T10:20:36;42.17;;;29.57;;
6438;SDS011;3252;52.540;13.290;2023-04-29T10:22:43;40.67;;;29.80;;
6438;SDS011;3252;52.540;13.290;2023-04-29T10:24:47;38.70;;;27.77;;
6438;SDS011;3252;52.540;13.290;2023-04-29T10:26:51;38.53;;;27.90;;
6438;SDS011;3252;52.540;13.290;2023-04-29T10:28:58;41.77;;;28.20;;
6438;SDS011;3252;52.540;13.290;2023-04-29T10:31:01;37.00;;;25.97;;
6438;SDS011;3252;52.540;13.290;2023-04-29T10:33:05;36.07;;;27.07;;
6438;SDS011;3252;52.540;13.290;2023-04-29T10:35:10;39.07;;;28.27;;
6438;SDS011;3252;52.540;13.290;2023-04-29T10:37:13;38.93;;;27.23;;
6438;SDS011;3252;52.540;13.290;2023-04-29T10:39:20;34.37;;;27.33;;
6438;SDS011;3252;52.540;13.290;2023-04-29T10:41:29;35.90;;;26.07;;
6438;SDS011;3252;52.540;13.290;2023-04-29T10:43:36;37.43;;;28.17;;
6438;SDS011;3252;52.540;13.290;2023-04-29T10:45:39;36.60;;;27.57;;
6438;SDS011;3252;52.540;13.290;2023-04-29T10:47:41;31.47;;;25.37;;
6438;SDS011;3252;52.540;13.290;2023-04-29T10:50:12;32.27;;;21.97;;
6438;SDS011;3252;52.540;13.290;2023-04-29T10:52:15;28.40;;;21.30;;
6438;SDS011;3252;52.540;13.290;2023-04-29T10:54:17;25.27;;;19.80;;
6438;SDS011;3252;52.540;13.290;2023-04-29T10:56:34;27.63;;;19.93;;
6438;SDS011;3252;52.540;13.290;2023-04-29T10:58:44;28.40;;;19.83;;
6438;SDS011;3252;52.540;13.290;2023-04-29T11:00:46;25.83;;;19.00;;
6438;SDS011;3252;52.540;13.290;2023-04-29T11:02:49;22.37;;;17.60;;
6438;SDS011;3252;52.540;13.290;2023-04-29T11:05:08;25.70;;;17.67;;
6438;SDS011;3252;52.540;13.290;2023-04-29T11:07:23;21.37;;;16.93;;
6438;SDS011;3252;52.540;13.290;2023-04-29T11:09:28;27.17;;;18.30;;
6438;SDS011;3252;52.540;13.290;2023-04-29T11:13:58;23.70;;;18.50;;
6438;SDS011;3252;52.540;13.290;2023-04-29T11:16:03;26.93;;;20.10;;
6438;SDS011;3252;52.540;13.290;2023-04-29T11:18:06;20.87;;;16.00;;
6438;SDS011;3252;52.540;13.290;2023-04-29T11:20:14;22.30;;;14.63;;
6438;SDS011;3252;52.540;13.290;2023-04-29T11:22:23;17.57;;;13.90;;
6438;SDS011;3252;52.540;13.290;2023-04-29T11:24:26;18.47;;;13.67;;
6438;SDS011;3252;52.540;13.290;2023-04-29T11:26:29;22.40;;;13.67;;
6438;SDS011;3252;52.540;13.290;2023-04-29T11:28:32;20.47;;;13.93;;
6438;SDS011;3252;52.540;13.290;2023-04-29T11:30:34;20.03;;;13.07;;
6438;SDS011;3252;52.540;13.290;2023-04-29T11:32:40;18.03;;;12.40;;
6438;SDS011;3252;52.540;13.290;2023-04-29T11:34:43;19.10;;;12.43;;
6438;SDS011;3252;52.540;13.290;2023-04-29T11:36:46;16.07;;;11.60;;
6438;SDS011;3252;52.540;13.290;2023-04-29T11:38:49;16.20;;;11.37;;
6438;SDS011;3252;52.540;13.290;2023-04-29T11:40:51;15.80;;;11.27;;
6438;SDS011;3252;52.540;13.290;2023-04-29T11:42:53;15.20;;;11.33;;
6438;SDS011;3252;52.540;13.290;2023-04-29T11:44:55;18.20;;;11.40;;
6438;SDS011;3252;52.540;13.290;2023-04-29T11:47:02;17.40;;;11.20;;
6438;SDS011;3252;52.540;13.290;2023-04-29T11:49:04;13.27;;;11.13;;
6438;SDS011;3252;52.540;13.290;2023-04-29T11:51:06;16.63;;;11.53;;
6438;SDS011;3252;52.540;13.290;2023-04-29T11:53:10;13.53;;;11.13;;
6438;SDS011;3252;52.540;13.290;2023-04-29T11:55:13;15.13;;;11.70;;
6438;SDS011;3252;52.540;13.290;2023-04-29T11:57:15;18.30;;;11.23;;
6438;SDS011;3252;52.540;13.290;2023-04-29T11:59:18;13.70;;;10.73;;
6438;SDS011;3252;52.540;13.290;2023-04-29T12:01:20;17.33;;;11.33;;
6438;SDS011;3252;52.540;13.290;2023-04-29T12:03:22;14.50;;;11.80;;
6438;SDS011;3252;52.540;13.290;2023-04-29T12:05:25;13.40;;;11.27;;
6438;SDS011;3252;52.540;13.290;2023-04-29T12:07:27;13.17;;;10.73;;
6438;SDS011;3252;52.540;13.290;2023-04-29T12:09:41;15.40;;;11.13;;
6438;SDS011;3252;52.540;13.290;2023-04-29T12:11:44;16.40;;;11.20;;
6438;SDS011;3252;52.540;13.290;2023-04-29T12:13:47;16.47;;;12.33;;
6438;SDS011;3252;52.540;13.290;2023-04-29T12:15:49;17.33;;;11.17;;
6438;SDS011;3252;52.540;13.290;2023-04-29T12:17:52;16.80;;;10.47;;
6438;SDS011;3252;52.540;13.290;2023-04-29T12:19:55;15.63;;;10.40;;
6438;SDS011;3252;52.540;13.290;2023-04-29T12:21:57;16.30;;;11.03;;
6438;SDS011;3252;52.540;13.290;2023-04-29T12:24:01;14.30;;;10.40;;
6438;SDS011;3252;52.540;13.290;2023-04-29T12:26:05;18.77;;;10.60;;